sensor_id;sensor_type;location;lat;lon;timestamp;temperature;humidity
47516;DHT22;33249;51.990;5.840;2023-12-04T00:00:45;0.00;99.90
47516;DHT22;33249;51.990;5.840;2023-12-04T00:03:11;0.00;99.90
47516;DHT22;33249;51.990;5.840;2023-12-04T00:05:37;0.00;99.90
47516;DHT22;33249;51.990;5.840;2023-12-04T00:08:03;0.00;99.90
47516;DHT22;33249;51.990;5.840;2023-12-04T00:10:29;0.00;99.90
47516;DHT22;33249;51.990;5.840;2023-12-04T00:12:55;0.00;99.90
47516;DHT22;33249;51.990;5.840;2023-12-04T00:15:21;-0.10;99.90
47516;DHT22;33249;51.990;5.840;2023-12-04T00:17:47;0.00;99.90
47516;DHT22;33249;51.990;5.840;2023-12-04T00:20:13;0.00;99.90
47516;DHT22;33249;51.990;5.840;2023-12-04T00:22:39;0.00;99.90
47516;DHT22;33249;51.990;5.840;2023-12-04T00:25:05;-0.10;99.90
47516;DHT22;33249;51.990;5.840;2023-12-04T00:27:32;0.00;99.90
47516;DHT22;33249;51.990;5.840;2023-12-04T00:29:58;0.00;99.90
47516;DHT22;33249;51.990;5.840;2023-12-04T00:32:24;0.00;99.90
47516;DHT22;33249;51.990;5.840;2023-12-04T00:34:50;0.00;99.90
47516;DHT22;33249;51.990;5.840;2023-12-04T00:37:16;0.00;99.90
47516;DHT22;33249;51.990;5.840;2023-12-04T00:39:41;0.00;99.90
47516;DHT22;33249;51.990;5.840;2023-12-04T00:42:07;0.00;99.90
47516;DHT22;33249;51.990;5.840;2023-12-04T00:44:33;0.00;99.90
47516;DHT22;33249;51.990;5.840;2023-12-04T00:46:59;0.00;99.90
47516;DHT22;33249;51.990;5.840;2023-12-04T00:49:25;0.00;99.90
47516;DHT22;33249;51.990;5.840;2023-12-04T00:51:51;0.00;99.90
47516;DHT22;33249;51.990;5.840;2023-12-04T00:54:17;0.00;99.90
47516;DHT22;33249;51.990;5.840;2023-12-04T00:56:43;0.00;99.90
47516;DHT22;33249;51.990;5.840;2023-12-04T00:59:09;-0.10;99.90
47516;DHT22;33249;51.990;5.840;2023-12-04T01:01:35;-0.10;99.90
47516;DHT22;33249;51.990;5.840;2023-12-04T01:04:01;-0.10;99.90
47516;DHT22;33249;51.990;5.840;2023-12-04T01:06:27;0.00;99.90
47516;DHT22;33249;51.990;5.840;2023-12-04T01:08:53;-0.10;99.90
47516;DHT22;33249;51.990;5.840;2023-12-04T01:11:19;-0.10;99.90
47516;DHT22;33249;51.990;5.840;2023-12-04T01:13:46;-0.10;99.90
47516;DHT22;33249;51.990;5.840;2023-12-04T01:16:11;-0.10;99.90
47516;DHT22;33249;51.990;5.840;2023-12-04T01:18:38;0.00;99.90
47516;DHT22;33249;51.990;5.840;2023-12-04T01:21:03;0.00;99.90
47516;DHT22;33249;51.990;5.840;2023-12-04T01:23:29;-0.10;99.90
47516;DHT22;33249;51.990;5.840;2023-12-04T01:25:55;0.00;99.90
47516;DHT22;33249;51.990;5.840;2023-12-04T01:28:21;0.00;99.90
47516;DHT22;33249;51.990;5.840;2023-12-04T01:30:47;0.00;99.90
47516;DHT22;33249;51.990;5.840;2023-12-04T01:33:13;0.00;99.90
47516;DHT22;33249;51.990;5.840;2023-12-04T01:35:39;-0.10;99.90
47516;DHT22;33249;51.990;5.840;2023-12-04T01:38:05;0.00;99.90
47516;DHT22;33249;51.990;5.840;2023-12-04T01:40:31;0.00;99.90
47516;DHT22;33249;51.990;5.840;2023-12-04T01:42:57;0.00;99.90
47516;DHT22;33249;51.990;5.840;2023-12-04T01:45:23;0.00;99.90
47516;DHT22;33249;51.990;5.840;2023-12-04T01:47:49;-0.10;99.90
47516;DHT22;33249;51.990;5.840;2023-12-04T01:50:15;-0.10;99.90
47516;DHT22;33249;51.990;5.840;2023-12-04T01:52:41;-0.10;99.90
47516;DHT22;33249;51.990;5.840;2023-12-04T01:55:07;-0.10;99.90
47516;DHT22;33249;51.990;5.840;2023-12-04T01:57:34;0.00;99.90
47516;DHT22;33249;51.990;5.840;2023-12-04T02:00:00;0.00;99.90
47516;DHT22;33249;51.990;5.840;2023-12-04T02:02:40;0.00;99.90
47516;DHT22;33249;51.990;5.840;2023-12-04T02:05:08;0.00;99.90
47516;DHT22;33249;51.990;5.840;2023-12-04T02:07:34;0.00;99.90
47516;DHT22;33249;51.990;5.840;2023-12-04T02:10:01;0.00;99.90
47516;DHT22;33249;51.990;5.840;2023-12-04T02:12:27;0.00;99.90
47516;DHT22;33249;51.990;5.840;2023-12-04T02:14:53;0.00;99.90
47516;DHT22;33249;51.990;5.840;2023-12-04T02:17:19;0.00;99.90
47516;DHT22;33249;51.990;5.840;2023-12-04T02:19:45;0.00;99.90
47516;DHT22;33249;51.990;5.840;2023-12-04T02:22:11;0.00;99.90
47516;DHT22;33249;51.990;5.840;2023-12-04T02:24:38;0.00;99.90
47516;DHT22;33249;51.990;5.840;2023-12-04T02:27:12;0.00;99.90
47516;DHT22;33249;51.990;5.840;2023-12-04T02:29:43;0.00;99.90
47516;DHT22;33249;51.990;5.840;2023-12-04T02:32:11;0.00;99.90
47516;DHT22;33249;51.990;5.840;2023-12-04T02:34:41;0.10;99.90
47516;DHT22;33249;51.990;5.840;2023-12-04T02:37:08;0.00;99.90
47516;DHT22;33249;51.990;5.840;2023-12-04T02:39:35;0.00;99.90
47516;DHT22;33249;51.990;5.840;2023-12-04T02:42:02;0.00;99.90
47516;DHT22;33249;51.990;5.840;2023-12-04T02:44:28;0.00;99.90
47516;DHT22;33249;51.990;5.840;2023-12-04T02:46:54;0.00;99.90
47516;DHT22;33249;51.990;5.840;2023-12-04T02:49:20;0.00;99.90
47516;DHT22;33249;51.990;5.840;2023-12-04T02:51:46;0.00;99.90
47516;DHT22;33249;51.990;5.840;2023-12-04T02:54:12;0.00;99.90
47516;DHT22;33249;51.990;5.840;2023-12-04T02:56:38;0.00;99.90
47516;DHT22;33249;51.990;5.840;2023-12-04T02:59:04;0.10;99.90
47516;DHT22;33249;51.990;5.840;2023-12-04T03:01:30;0.10;99.90
47516;DHT22;33249;51.990;5.840;2023-12-04T03:03:56;0.10;99.90
47516;DHT22;33249;51.990;5.840;2023-12-04T03:06:22;0.10;99.90
47516;DHT22;33249;51.990;5.840;2023-12-04T03:08:48;0.10;99.90
47516;DHT22;33249;51.990;5.840;2023-12-04T03:11:14;0.10;99.90
47516;DHT22;33249;51.990;5.840;2023-12-04T03:13:39;0.10;99.90
47516;DHT22;33249;51.990;5.840;2023-12-04T03:16:05;0.10;99.90
47516;DHT22;33249;51.990;5.840;2023-12-04T03:18:31;0.10;99.90
47516;DHT22;33249;51.990;5.840;2023-12-04T03:20:57;0.10;99.90
47516;DHT22;33249;51.990;5.840;2023-12-04T03:23:23;0.10;99.90
47516;DHT22;33249;51.990;5.840;2023-12-04T03:25:49;0.10;99.90
47516;DHT22;33249;51.990;5.840;2023-12-04T03:28:15;0.20;99.90
47516;DHT22;33249;51.990;5.840;2023-12-04T03:30:41;0.10;99.90
47516;DHT22;33249;51.990;5.840;2023-12-04T03:33:11;0.10;99.90
47516;DHT22;33249;51.990;5.840;2023-12-04T03:35:37;0.10;99.90
47516;DHT22;33249;51.990;5.840;2023-12-04T03:38:02;0.20;99.90
47516;DHT22;33249;51.990;5.840;2023-12-04T03:40:28;0.10;99.90
47516;DHT22;33249;51.990;5.840;2023-12-04T03:42:54;0.20;99.90
47516;DHT22;33249;51.990;5.840;2023-12-04T03:45:20;0.20;99.90
47516;DHT22;33249;51.990;5.840;2023-12-04T03:47:46;0.20;99.90
47516;DHT22;33249;51.990;5.840;2023-12-04T03:50:12;0.20;99.90
47516;DHT22;33249;51.990;5.840;2023-12-04T03:52:38;0.10;99.90
47516;DHT22;33249;51.990;5.840;2023-12-04T03:55:04;0.20;99.90
47516;DHT22;33249;51.990;5.840;2023-12-04T03:57:30;0.20;99.90
47516;DHT22;33249;51.990;5.840;2023-12-04T03:59:56;0.20;99.90
47516;DHT22;33249;51.990;5.840;2023-12-04T04:02:22;0.10;99.90
47516;DHT22;33249;51.990;5.840;2023-12-04T04:04:48;0.10;99.90
47516;DHT22;33249;51.990;5.840;2023-12-04T04:07:15;0.10;99.90
47516;DHT22;33249;51.990;5.840;2023-12-04T04:09:41;0.10;99.90
47516;DHT22;33249;51.990;5.840;2023-12-04T04:12:07;0.10;99.90
47516;DHT22;33249;51.990;5.840;2023-12-04T04:14:33;0.10;99.90
47516;DHT22;33249;51.990;5.840;2023-12-04T04:16:59;0.10;99.90
47516;DHT22;33249;51.990;5.840;2023-12-04T04:19:25;0.10;99.90
47516;DHT22;33249;51.990;5.840;2023-12-04T04:21:51;0.10;99.90
47516;DHT22;33249;51.990;5.840;2023-12-04T04:24:17;0.10;99.90
47516;DHT22;33249;51.990;5.840;2023-12-04T04:26:43;0.10;99.90
47516;DHT22;33249;51.990;5.840;2023-12-04T04:29:09;0.10;99.90
47516;DHT22;33249;51.990;5.840;2023-12-04T04:31:35;0.10;99.90
47516;DHT22;33249;51.990;5.840;2023-12-04T04:34:01;0.10;99.90
47516;DHT22;33249;51.990;5.840;2023-12-04T04:36:27;0.10;99.90
47516;DHT22;33249;51.990;5.840;2023-12-04T04:38:53;0.10;99.90
47516;DHT22;33249;51.990;5.840;2023-12-04T04:41:18;0.10;99.90
47516;DHT22;33249;51.990;5.840;2023-12-04T04:43:44;0.10;99.90
47516;DHT22;33249;51.990;5.840;2023-12-04T04:46:12;0.00;99.90
47516;DHT22;33249;51.990;5.840;2023-12-04T04:48:39;0.10;99.90
47516;DHT22;33249;51.990;5.840;2023-12-04T04:51:05;0.10;99.90
47516;DHT22;33249;51.990;5.840;2023-12-04T04:53:31;0.10;99.90
47516;DHT22;33249;51.990;5.840;2023-12-04T04:55:57;0.10;99.90
47516;DHT22;33249;51.990;5.840;2023-12-04T04:58:23;0.10;99.90
47516;DHT22;33249;51.990;5.840;2023-12-04T05:00:49;0.10;99.90
47516;DHT22;33249;51.990;5.840;2023-12-04T05:03:15;0.00;99.90
47516;DHT22;33249;51.990;5.840;2023-12-04T05:05:41;0.10;99.90
47516;DHT22;33249;51.990;5.840;2023-12-04T05:08:07;0.00;99.90
47516;DHT22;33249;51.990;5.840;2023-12-04T05:10:33;0.10;99.90
47516;DHT22;33249;51.990;5.840;2023-12-04T05:12:59;0.00;99.90
47516;DHT22;33249;51.990;5.840;2023-12-04T05:15:24;0.10;99.90
47516;DHT22;33249;51.990;5.840;2023-12-04T05:17:51;0.10;99.90
47516;DHT22;33249;51.990;5.840;2023-12-04T05:20:17;0.00;99.90
47516;DHT22;33249;51.990;5.840;2023-12-04T05:22:43;0.00;99.90
47516;DHT22;33249;51.990;5.840;2023-12-04T05:25:09;0.00;99.90
47516;DHT22;33249;51.990;5.840;2023-12-04T05:27:35;0.00;99.90
47516;DHT22;33249;51.990;5.840;2023-12-04T05:30:00;0.10;99.90
47516;DHT22;33249;51.990;5.840;2023-12-04T05:32:26;0.10;99.90
47516;DHT22;33249;51.990;5.840;2023-12-04T05:34:52;0.10;99.90
47516;DHT22;33249;51.990;5.840;2023-12-04T05:37:18;0.10;99.90
47516;DHT22;33249;51.990;5.840;2023-12-04T05:39:44;0.10;99.90
47516;DHT22;33249;51.990;5.840;2023-12-04T05:42:10;0.10;99.90
47516;DHT22;33249;51.990;5.840;2023-12-04T05:44:36;0.10;99.90
47516;DHT22;33249;51.990;5.840;2023-12-04T05:47:02;0.00;99.90
47516;DHT22;33249;51.990;5.840;2023-12-04T05:49:28;0.00;99.90
47516;DHT22;33249;51.990;5.840;2023-12-04T05:51:55;0.00;99.90
47516;DHT22;33249;51.990;5.840;2023-12-04T05:54:21;0.00;99.90
47516;DHT22;33249;51.990;5.840;2023-12-04T05:56:47;0.10;99.90
47516;DHT22;33249;51.990;5.840;2023-12-04T05:59:13;0.10;99.90
47516;DHT22;33249;51.990;5.840;2023-12-04T06:01:39;0.10;99.90
47516;DHT22;33249;51.990;5.840;2023-12-04T06:04:05;0.10;99.90
47516;DHT22;33249;51.990;5.840;2023-12-04T06:06:31;0.10;99.90
47516;DHT22;33249;51.990;5.840;2023-12-04T06:08:57;0.10;99.90
47516;DHT22;33249;51.990;5.840;2023-12-04T06:11:23;0.10;99.90
47516;DHT22;33249;51.990;5.840;2023-12-04T06:13:49;0.10;99.90
47516;DHT22;33249;51.990;5.840;2023-12-04T06:16:15;0.10;99.90
47516;DHT22;33249;51.990;5.840;2023-12-04T06:18:45;0.10;99.90
47516;DHT22;33249;51.990;5.840;2023-12-04T06:21:11;0.10;99.90
47516;DHT22;33249;51.990;5.840;2023-12-04T06:23:37;0.20;99.90
47516;DHT22;33249;51.990;5.840;2023-12-04T06:26:03;0.10;99.90
47516;DHT22;33249;51.990;5.840;2023-12-04T06:28:29;0.20;99.90
47516;DHT22;33249;51.990;5.840;2023-12-04T06:30:55;0.20;99.90
47516;DHT22;33249;51.990;5.840;2023-12-04T06:33:22;0.20;99.90
47516;DHT22;33249;51.990;5.840;2023-12-04T06:35:48;0.20;99.90
47516;DHT22;33249;51.990;5.840;2023-12-04T06:38:14;0.20;99.90
47516;DHT22;33249;51.990;5.840;2023-12-04T06:40:48;0.20;99.90
47516;DHT22;33249;51.990;5.840;2023-12-04T06:43:14;0.20;99.90
47516;DHT22;33249;51.990;5.840;2023-12-04T06:45:44;0.20;99.90
47516;DHT22;33249;51.990;5.840;2023-12-04T06:48:12;0.20;99.90
47516;DHT22;33249;51.990;5.840;2023-12-04T06:50:38;0.20;99.90
47516;DHT22;33249;51.990;5.840;2023-12-04T06:53:05;0.20;99.90
47516;DHT22;33249;51.990;5.840;2023-12-04T06:55:31;0.20;99.90
47516;DHT22;33249;51.990;5.840;2023-12-04T06:57:57;0.30;99.90
47516;DHT22;33249;51.990;5.840;2023-12-04T07:00:23;0.30;99.90
47516;DHT22;33249;51.990;5.840;2023-12-04T07:02:49;0.30;99.90
47516;DHT22;33249;51.990;5.840;2023-12-04T07:05:15;0.30;99.90
47516;DHT22;33249;51.990;5.840;2023-12-04T07:07:42;0.30;99.90
47516;DHT22;33249;51.990;5.840;2023-12-04T07:10:08;0.40;99.90
47516;DHT22;33249;51.990;5.840;2023-12-04T07:12:34;0.30;99.90
47516;DHT22;33249;51.990;5.840;2023-12-04T07:14:59;0.40;99.90
47516;DHT22;33249;51.990;5.840;2023-12-04T07:17:25;0.30;99.90
47516;DHT22;33249;51.990;5.840;2023-12-04T07:19:51;0.40;99.90
47516;DHT22;33249;51.990;5.840;2023-12-04T07:22:19;0.40;99.90
47516;DHT22;33249;51.990;5.840;2023-12-04T07:24:45;0.40;99.90
47516;DHT22;33249;51.990;5.840;2023-12-04T07:27:11;0.40;99.90
47516;DHT22;33249;51.990;5.840;2023-12-04T07:29:37;0.40;99.90
47516;DHT22;33249;51.990;5.840;2023-12-04T07:32:04;0.40;99.90
47516;DHT22;33249;51.990;5.840;2023-12-04T07:34:30;0.40;99.90
47516;DHT22;33249;51.990;5.840;2023-12-04T07:36:56;0.40;99.90
47516;DHT22;33249;51.990;5.840;2023-12-04T07:39:22;0.40;99.90
47516;DHT22;33249;51.990;5.840;2023-12-04T07:41:48;0.40;99.90
47516;DHT22;33249;51.990;5.840;2023-12-04T07:44:14;0.40;99.90
47516;DHT22;33249;51.990;5.840;2023-12-04T07:46:41;0.40;99.90
47516;DHT22;33249;51.990;5.840;2023-12-04T07:49:07;0.40;99.90
47516;DHT22;33249;51.990;5.840;2023-12-04T07:51:33;0.40;99.90
47516;DHT22;33249;51.990;5.840;2023-12-04T07:53:59;0.40;99.90
47516;DHT22;33249;51.990;5.840;2023-12-04T07:56:25;0.40;99.90
47516;DHT22;33249;51.990;5.840;2023-12-04T07:58:51;0.40;99.90
47516;DHT22;33249;51.990;5.840;2023-12-04T08:01:16;0.50;99.90
47516;DHT22;33249;51.990;5.840;2023-12-04T08:03:42;0.50;99.90
47516;DHT22;33249;51.990;5.840;2023-12-04T08:06:09;0.50;99.90
47516;DHT22;33249;51.990;5.840;2023-12-04T08:08:34;0.50;99.90
47516;DHT22;33249;51.990;5.840;2023-12-04T08:11:01;0.40;99.90
47516;DHT22;33249;51.990;5.840;2023-12-04T08:13:27;0.50;99.90
47516;DHT22;33249;51.990;5.840;2023-12-04T08:15:53;0.50;99.90
47516;DHT22;33249;51.990;5.840;2023-12-04T08:18:19;0.50;99.90
47516;DHT22;33249;51.990;5.840;2023-12-04T08:20:45;0.50;99.90
47516;DHT22;33249;51.990;5.840;2023-12-04T08:23:12;0.60;99.90
47516;DHT22;33249;51.990;5.840;2023-12-04T08:25:38;0.60;99.90
47516;DHT22;33249;51.990;5.840;2023-12-04T08:28:04;0.60;99.90
47516;DHT22;33249;51.990;5.840;2023-12-04T08:30:30;0.60;99.90
47516;DHT22;33249;51.990;5.840;2023-12-04T08:32:56;0.60;99.90
47516;DHT22;33249;51.990;5.840;2023-12-04T08:35:22;0.50;99.90
47516;DHT22;33249;51.990;5.840;2023-12-04T08:37:48;0.50;99.90
47516;DHT22;33249;51.990;5.840;2023-12-04T08:40:14;0.50;99.90
47516;DHT22;33249;51.990;5.840;2023-12-04T08:42:40;0.60;99.90
47516;DHT22;33249;51.990;5.840;2023-12-04T08:45:06;0.60;99.90
47516;DHT22;33249;51.990;5.840;2023-12-04T08:47:34;0.60;99.90
47516;DHT22;33249;51.990;5.840;2023-12-04T08:50:00;0.70;99.90
47516;DHT22;33249;51.990;5.840;2023-12-04T08:52:26;0.70;99.90
47516;DHT22;33249;51.990;5.840;2023-12-04T08:54:52;0.70;99.90
47516;DHT22;33249;51.990;5.840;2023-12-04T08:57:21;0.70;99.90
47516;DHT22;33249;51.990;5.840;2023-12-04T08:59:47;0.70;99.90
47516;DHT22;33249;51.990;5.840;2023-12-04T09:02:13;0.70;99.90
47516;DHT22;33249;51.990;5.840;2023-12-04T09:04:39;0.80;99.90
47516;DHT22;33249;51.990;5.840;2023-12-04T09:07:04;0.80;99.90
47516;DHT22;33249;51.990;5.840;2023-12-04T09:09:30;0.80;99.90
47516;DHT22;33249;51.990;5.840;2023-12-04T09:11:58;0.80;99.90
47516;DHT22;33249;51.990;5.840;2023-12-04T09:14:24;0.90;99.90
47516;DHT22;33249;51.990;5.840;2023-12-04T09:16:50;0.90;99.90
47516;DHT22;33249;51.990;5.840;2023-12-04T09:19:16;0.90;99.90
47516;DHT22;33249;51.990;5.840;2023-12-04T09:21:42;0.90;99.90
47516;DHT22;33249;51.990;5.840;2023-12-04T09:24:10;0.90;99.90
47516;DHT22;33249;51.990;5.840;2023-12-04T09:26:36;1.00;99.90
47516;DHT22;33249;51.990;5.840;2023-12-04T09:29:02;0.90;99.90
47516;DHT22;33249;51.990;5.840;2023-12-04T09:31:28;1.00;99.90
47516;DHT22;33249;51.990;5.840;2023-12-04T09:33:55;0.90;99.90
47516;DHT22;33249;51.990;5.840;2023-12-04T09:36:21;1.00;99.90
47516;DHT22;33249;51.990;5.840;2023-12-04T09:38:47;1.10;99.90
47516;DHT22;33249;51.990;5.840;2023-12-04T09:41:13;1.10;99.90
47516;DHT22;33249;51.990;5.840;2023-12-04T09:43:40;1.10;99.90
47516;DHT22;33249;51.990;5.840;2023-12-04T09:46:07;1.10;99.90
47516;DHT22;33249;51.990;5.840;2023-12-04T09:48:34;1.10;99.90
47516;DHT22;33249;51.990;5.840;2023-12-04T09:51:01;1.20;99.90
47516;DHT22;33249;51.990;5.840;2023-12-04T09:53:28;1.20;99.90
47516;DHT22;33249;51.990;5.840;2023-12-04T09:55:56;1.20;99.90
47516;DHT22;33249;51.990;5.840;2023-12-04T09:58:23;1.30;99.90
47516;DHT22;33249;51.990;5.840;2023-12-04T10:00:50;1.30;99.90
47516;DHT22;33249;51.990;5.840;2023-12-04T10:03:19;1.30;99.90
47516;DHT22;33249;51.990;5.840;2023-12-04T10:05:46;1.30;99.90
47516;DHT22;33249;51.990;5.840;2023-12-04T10:08:12;1.30;99.90
47516;DHT22;33249;51.990;5.840;2023-12-04T10:10:37;1.20;99.90
47516;DHT22;33249;51.990;5.840;2023-12-04T10:13:03;1.20;99.90
47516;DHT22;33249;51.990;5.840;2023-12-04T10:15:29;1.30;99.90
47516;DHT22;33249;51.990;5.840;2023-12-04T10:17:55;1.30;99.90
47516;DHT22;33249;51.990;5.840;2023-12-04T10:20:21;1.30;99.90
47516;DHT22;33249;51.990;5.840;2023-12-04T10:22:56;1.30;99.90
47516;DHT22;33249;51.990;5.840;2023-12-04T10:25:22;1.30;99.90
47516;DHT22;33249;51.990;5.840;2023-12-04T10:27:51;1.30;99.90
47516;DHT22;33249;51.990;5.840;2023-12-04T10:32:49;1.40;99.90
47516;DHT22;33249;51.990;5.840;2023-12-04T10:35:15;1.40;99.90
47516;DHT22;33249;51.990;5.840;2023-12-04T10:37:41;1.40;99.90
47516;DHT22;33249;51.990;5.840;2023-12-04T10:40:07;1.40;99.90
47516;DHT22;33249;51.990;5.840;2023-12-04T10:42:36;1.40;99.90
47516;DHT22;33249;51.990;5.840;2023-12-04T10:45:02;1.40;99.90
47516;DHT22;33249;51.990;5.840;2023-12-04T10:47:28;1.40;99.90
47516;DHT22;33249;51.990;5.840;2023-12-04T10:49:56;1.50;99.90
47516;DHT22;33249;51.990;5.840;2023-12-04T10:52:22;1.50;99.90
47516;DHT22;33249;51.990;5.840;2023-12-04T10:54:48;1.60;99.90
47516;DHT22;33249;51.990;5.840;2023-12-04T10:57:25;1.50;99.90
47516;DHT22;33249;51.990;5.840;2023-12-04T10:59:55;1.60;99.90
47516;DHT22;33249;51.990;5.840;2023-12-04T11:02:22;1.60;99.90
47516;DHT22;33249;51.990;5.840;2023-12-04T11:04:54;1.60;99.90
47516;DHT22;33249;51.990;5.840;2023-12-04T11:07:20;1.60;99.90
47516;DHT22;33249;51.990;5.840;2023-12-04T11:09:49;1.60;99.90
47516;DHT22;33249;51.990;5.840;2023-12-04T11:12:21;1.60;99.90
47516;DHT22;33249;51.990;5.840;2023-12-04T11:14:55;1.70;99.90
47516;DHT22;33249;51.990;5.840;2023-12-04T11:17:21;1.70;99.90
47516;DHT22;33249;51.990;5.840;2023-12-04T11:19:55;1.70;99.90
47516;DHT22;33249;51.990;5.840;2023-12-04T11:22:21;1.60;99.90
47516;DHT22;33249;51.990;5.840;2023-12-04T11:24:47;1.60;99.90
47516;DHT22;33249;51.990;5.840;2023-12-04T11:27:16;1.60;99.90
47516;DHT22;33249;51.990;5.840;2023-12-04T11:29:43;1.60;99.90
47516;DHT22;33249;51.990;5.840;2023-12-04T11:32:13;1.60;99.90
47516;DHT22;33249;51.990;5.840;2023-12-04T11:34:51;1.50;99.90
47516;DHT22;33249;51.990;5.840;2023-12-04T11:37:19;1.50;99.90
47516;DHT22;33249;51.990;5.840;2023-12-04T11:39:46;1.50;99.90
47516;DHT22;33249;51.990;5.840;2023-12-04T11:42:12;1.50;99.90
47516;DHT22;33249;51.990;5.840;2023-12-04T11:44:40;1.50;99.90
47516;DHT22;33249;51.990;5.840;2023-12-04T11:47:06;1.50;99.90
47516;DHT22;33249;51.990;5.840;2023-12-04T11:49:32;1.60;99.90
47516;DHT22;33249;51.990;5.840;2023-12-04T11:51:59;1.60;99.90
47516;DHT22;33249;51.990;5.840;2023-12-04T11:54:25;1.60;99.90
47516;DHT22;33249;51.990;5.840;2023-12-04T11:56:56;1.60;99.90
47516;DHT22;33249;51.990;5.840;2023-12-04T11:59:22;1.50;99.90
47516;DHT22;33249;51.990;5.840;2023-12-04T12:01:50;1.60;99.90
47516;DHT22;33249;51.990;5.840;2023-12-04T12:04:16;1.60;99.90
47516;DHT22;33249;51.990;5.840;2023-12-04T12:06:43;1.60;99.90
47516;DHT22;33249;51.990;5.840;2023-12-04T12:09:10;1.50;99.90
47516;DHT22;33249;51.990;5.840;2023-12-04T12:11:36;1.60;99.90
47516;DHT22;33249;51.990;5.840;2023-12-04T12:14:02;1.50;99.90
47516;DHT22;33249;51.990;5.840;2023-12-04T12:16:28;1.60;99.90
47516;DHT22;33249;51.990;5.840;2023-12-04T12:18:54;1.50;99.90
47516;DHT22;33249;51.990;5.840;2023-12-04T12:21:20;1.60;99.90
47516;DHT22;33249;51.990;5.840;2023-12-04T12:23:46;1.60;99.90
47516;DHT22;33249;51.990;5.840;2023-12-04T12:26:12;1.50;99.90
47516;DHT22;33249;51.990;5.840;2023-12-04T12:28:38;1.60;99.90
47516;DHT22;33249;51.990;5.840;2023-12-04T12:31:04;1.60;99.90
47516;DHT22;33249;51.990;5.840;2023-12-04T12:33:30;1.60;99.90
47516;DHT22;33249;51.990;5.840;2023-12-04T12:35:57;1.60;99.90
47516;DHT22;33249;51.990;5.840;2023-12-04T12:38:24;1.60;99.90
47516;DHT22;33249;51.990;5.840;2023-12-04T12:40:50;1.60;99.90
47516;DHT22;33249;51.990;5.840;2023-12-04T12:43:16;1.70;99.90
47516;DHT22;33249;51.990;5.840;2023-12-04T12:45:46;1.70;99.90
47516;DHT22;33249;51.990;5.840;2023-12-04T12:48:15;1.60;99.90
47516;DHT22;33249;51.990;5.840;2023-12-04T12:50:42;1.70;99.90
47516;DHT22;33249;51.990;5.840;2023-12-04T12:53:12;1.70;99.90
47516;DHT22;33249;51.990;5.840;2023-12-04T12:55:40;1.70;99.90
47516;DHT22;33249;51.990;5.840;2023-12-04T12:58:06;1.60;99.90
47516;DHT22;33249;51.990;5.840;2023-12-04T13:00:32;1.60;99.90
47516;DHT22;33249;51.990;5.840;2023-12-04T13:02:59;1.70;99.90
47516;DHT22;33249;51.990;5.840;2023-12-04T13:05:25;1.70;99.90
47516;DHT22;33249;51.990;5.840;2023-12-04T13:07:51;1.70;99.90
47516;DHT22;33249;51.990;5.840;2023-12-04T13:10:17;1.70;99.90
47516;DHT22;33249;51.990;5.840;2023-12-04T13:12:43;1.80;99.90
47516;DHT22;33249;51.990;5.840;2023-12-04T13:15:10;1.70;99.90
47516;DHT22;33249;51.990;5.840;2023-12-04T13:17:36;1.70;99.90
47516;DHT22;33249;51.990;5.840;2023-12-04T13:20:02;1.70;99.90
47516;DHT22;33249;51.990;5.840;2023-12-04T13:22:30;1.70;99.90
47516;DHT22;33249;51.990;5.840;2023-12-04T13:24:58;1.70;99.90
47516;DHT22;33249;51.990;5.840;2023-12-04T13:27:24;1.70;99.90
47516;DHT22;33249;51.990;5.840;2023-12-04T13:29:50;1.70;99.90
47516;DHT22;33249;51.990;5.840;2023-12-04T13:32:16;1.70;99.90
47516;DHT22;33249;51.990;5.840;2023-12-04T13:34:42;1.70;99.90
47516;DHT22;33249;51.990;5.840;2023-12-04T13:37:08;1.60;99.90
47516;DHT22;33249;51.990;5.840;2023-12-04T13:39:34;1.70;99.90
47516;DHT22;33249;51.990;5.840;2023-12-04T13:42:26;1.60;99.90
47516;DHT22;33249;51.990;5.840;2023-12-04T13:45:11;1.70;99.90
47516;DHT22;33249;51.990;5.840;2023-12-04T13:47:38;1.60;99.90
47516;DHT22;33249;51.990;5.840;2023-12-04T13:50:07;1.70;99.90
47516;DHT22;33249;51.990;5.840;2023-12-04T13:52:36;1.70;99.90
47516;DHT22;33249;51.990;5.840;2023-12-04T13:55:02;1.70;99.90
47516;DHT22;33249;51.990;5.840;2023-12-04T13:57:40;1.70;99.90
47516;DHT22;33249;51.990;5.840;2023-12-04T14:00:28;1.60;99.90
47516;DHT22;33249;51.990;5.840;2023-12-04T14:02:54;1.70;99.90
47516;DHT22;33249;51.990;5.840;2023-12-04T14:05:35;1.60;99.90
47516;DHT22;33249;51.990;5.840;2023-12-04T14:08:03;1.60;99.90
47516;DHT22;33249;51.990;5.840;2023-12-04T14:10:30;1.60;99.90
47516;DHT22;33249;51.990;5.840;2023-12-04T14:12:55;1.60;99.90
47516;DHT22;33249;51.990;5.840;2023-12-04T14:15:21;1.60;99.90
47516;DHT22;33249;51.990;5.840;2023-12-04T14:17:47;1.50;99.90
47516;DHT22;33249;51.990;5.840;2023-12-04T14:20:13;1.60;99.90
47516;DHT22;33249;51.990;5.840;2023-12-04T14:22:43;1.60;99.90
47516;DHT22;33249;51.990;5.840;2023-12-04T14:25:09;1.60;99.90
47516;DHT22;33249;51.990;5.840;2023-12-04T14:27:35;1.60;99.90
47516;DHT22;33249;51.990;5.840;2023-12-04T14:30:02;1.60;99.90
47516;DHT22;33249;51.990;5.840;2023-12-04T14:32:29;1.60;99.90
47516;DHT22;33249;51.990;5.840;2023-12-04T14:34:55;1.60;99.90
47516;DHT22;33249;51.990;5.840;2023-12-04T14:37:21;1.60;99.90
47516;DHT22;33249;51.990;5.840;2023-12-04T14:39:47;1.60;99.90
47516;DHT22;33249;51.990;5.840;2023-12-04T14:42:13;1.60;99.90
47516;DHT22;33249;51.990;5.840;2023-12-04T14:44:40;1.60;99.90
47516;DHT22;33249;51.990;5.840;2023-12-04T14:47:06;1.60;99.90
47516;DHT22;33249;51.990;5.840;2023-12-04T14:49:34;1.50;99.90
47516;DHT22;33249;51.990;5.840;2023-12-04T14:52:00;1.60;99.90
47516;DHT22;33249;51.990;5.840;2023-12-04T14:54:31;1.60;99.90
47516;DHT22;33249;51.990;5.840;2023-12-04T14:57:18;1.60;99.90
47516;DHT22;33249;51.990;5.840;2023-12-04T14:59:44;1.60;99.90
47516;DHT22;33249;51.990;5.840;2023-12-04T15:02:16;1.60;99.90
47516;DHT22;33249;51.990;5.840;2023-12-04T15:04:54;1.60;99.90
47516;DHT22;33249;51.990;5.840;2023-12-04T15:07:43;1.60;99.90
47516;DHT22;33249;51.990;5.840;2023-12-04T15:10:35;1.60;99.90
47516;DHT22;33249;51.990;5.840;2023-12-04T15:13:20;1.60;99.90
47516;DHT22;33249;51.990;5.840;2023-12-04T15:16:01;1.60;99.90
47516;DHT22;33249;51.990;5.840;2023-12-04T15:18:50;1.50;99.90
47516;DHT22;33249;51.990;5.840;2023-12-04T15:21:23;1.60;99.90
47516;DHT22;33249;51.990;5.840;2023-12-04T15:23:49;1.60;99.90
47516;DHT22;33249;51.990;5.840;2023-12-04T15:26:15;1.60;99.90
47516;DHT22;33249;51.990;5.840;2023-12-04T15:28:41;1.60;99.90
47516;DHT22;33249;51.990;5.840;2023-12-04T15:31:08;1.50;99.90
47516;DHT22;33249;51.990;5.840;2023-12-04T15:33:34;1.50;99.90
47516;DHT22;33249;51.990;5.840;2023-12-04T15:36:04;1.50;99.90
47516;DHT22;33249;51.990;5.840;2023-12-04T15:38:30;1.50;99.90
47516;DHT22;33249;51.990;5.840;2023-12-04T15:40:56;1.40;99.90
47516;DHT22;33249;51.990;5.840;2023-12-04T15:43:23;1.40;99.90
47516;DHT22;33249;51.990;5.840;2023-12-04T15:45:49;1.40;99.90